createdAt,value
2024-05-09T00:00:18.444Z,2.83
2024-05-09T00:02:30.814Z,2.90
2024-05-09T00:04:35.887Z,2.90
2024-05-09T00:06:40.961Z,2.93
2024-05-09T00:08:43.040Z,3.00
2024-05-09T00:10:47.808Z,2.80
2024-05-09T00:12:55.890Z,3.00
2024-05-09T00:15:00.434Z,3.00
2024-05-09T00:17:05.098Z,2.93
2024-05-09T00:19:10.387Z,2.70
2024-05-09T00:21:16.944Z,3.20
2024-05-09T00:23:21.657Z,3.03
2024-05-09T00:25:26.848Z,2.97
2024-05-09T00:27:31.487Z,2.90
2024-05-09T00:29:38.676Z,3.00
2024-05-09T00:31:43.775Z,2.90
2024-05-09T00:33:48.553Z,3.07
2024-05-09T00:35:53.254Z,3.30
2024-05-09T00:37:59.187Z,2.90
2024-05-09T00:40:05.798Z,2.80
2024-05-09T00:42:11.903Z,3.00
2024-05-09T00:44:17.115Z,2.93
2024-05-09T00:46:24.519Z,3.00
2024-05-09T00:48:29.968Z,2.90
2024-05-09T00:50:37.418Z,3.10
2024-05-09T00:52:43.146Z,3.00
2024-05-09T00:54:48.063Z,3.50
2024-05-09T00:56:53.612Z,2.97
2024-05-09T00:58:58.597Z,2.93
2024-05-09T01:01:05.545Z,2.90
2024-05-09T01:03:14.371Z,2.90
2024-05-09T01:05:19.612Z,2.53
2024-05-09T01:07:24.233Z,3.07
2024-05-09T01:09:29.399Z,3.17
2024-05-09T01:11:39.520Z,2.80
2024-05-09T01:13:41.665Z,3.20
2024-05-09T01:15:48.031Z,3.40
2024-05-09T01:17:55.515Z,3.00
2024-05-09T01:20:04.251Z,3.07
2024-05-09T01:22:11.013Z,3.17
2024-05-09T01:24:18.349Z,3.30
2024-05-09T01:26:23.250Z,3.43
2024-05-09T01:28:28.439Z,3.20
2024-05-09T01:30:35.820Z,3.33
2024-05-09T01:32:42.169Z,3.30
2024-05-09T01:34:47.273Z,3.10
2024-05-09T01:36:49.620Z,2.97
2024-05-09T01:38:55.196Z,3.53
2024-05-09T01:41:03.256Z,3.20
2024-05-09T01:43:05.386Z,3.20
2024-05-09T01:45:10.898Z,3.10
2024-05-09T01:47:15.904Z,3.30
2024-05-09T01:49:20.626Z,3.23
2024-05-09T01:51:25.297Z,3.40
2024-05-09T01:53:30.388Z,3.27
2024-05-09T01:55:35.074Z,3.17
2024-05-09T01:57:42.526Z,3.13
2024-05-09T01:59:47.775Z,3.43
2024-05-09T02:01:56.888Z,3.40
2024-05-09T02:04:02.831Z,3.43
2024-05-09T02:06:08.606Z,3.47
2024-05-09T02:08:17.181Z,3.23
2024-05-09T02:10:26.585Z,3.20
2024-05-09T02:12:37.406Z,3.67
2024-05-09T02:14:44.658Z,3.33
2024-05-09T02:16:46.888Z,3.63
2024-05-09T02:18:52.387Z,3.23
2024-05-09T02:20:57.407Z,3.57
2024-05-09T02:23:03.599Z,3.50
2024-05-09T02:25:09.282Z,3.93
2024-05-09T02:27:13.884Z,3.60
2024-05-09T02:29:19.118Z,3.40
2024-05-09T02:31:26.719Z,3.37
2024-05-09T02:33:31.574Z,3.60
2024-05-09T02:35:33.942Z,3.60
2024-05-09T02:37:39.048Z,3.33
2024-05-09T02:39:41.371Z,3.60
2024-05-09T02:41:46.191Z,3.50
2024-05-09T02:43:48.626Z,3.50
2024-05-09T02:45:54.191Z,3.20
2024-05-09T02:47:59.127Z,3.13
2024-05-09T02:50:05.980Z,3.63
2024-05-09T02:52:08.221Z,3.20
2024-05-09T02:54:13.687Z,3.43
2024-05-09T02:56:16.089Z,3.47
2024-05-09T02:58:20.801Z,3.67
2024-05-09T03:00:29.472Z,3.60
2024-05-09T03:02:45.503Z,3.40
2024-05-09T03:04:50.295Z,3.70
2024-05-09T03:06:55.226Z,3.90
2024-05-09T03:08:57.595Z,3.53
2024-05-09T03:11:02.648Z,3.40
2024-05-09T03:13:06.502Z,3.87
2024-05-09T03:15:11.523Z,3.77
2024-05-09T03:17:13.568Z,3.37
2024-05-09T03:19:18.674Z,3.63
2024-05-09T03:21:23.722Z,3.80
2024-05-09T03:23:28.658Z,3.77
2024-05-09T03:25:30.750Z,3.77
2024-05-09T03:27:35.971Z,4.17
2024-05-09T03:29:38.038Z,3.80
2024-05-09T03:31:43.367Z,4.03
2024-05-09T03:33:46.067Z,4.00
2024-05-09T03:35:51.070Z,3.70
2024-05-09T03:37:58.394Z,4.17
2024-05-09T03:40:05.578Z,3.70
2024-05-09T03:42:11.742Z,3.57
2024-05-09T03:44:14.723Z,3.33
2024-05-09T03:46:19.997Z,3.10
2024-05-09T03:48:22.410Z,3.83
2024-05-09T03:50:30.212Z,3.47
2024-05-09T03:52:39.106Z,3.83
2024-05-09T03:54:47.526Z,3.53
2024-05-09T03:56:52.303Z,3.57
2024-05-09T03:58:55.314Z,3.73
2024-05-09T04:01:00.042Z,3.50
2024-05-09T04:03:02.457Z,3.57
2024-05-09T04:05:07.984Z,3.67
2024-05-09T04:07:10.023Z,3.60
2024-05-09T04:09:14.624Z,3.53
2024-05-09T04:11:19.950Z,3.70
2024-05-09T04:13:24.642Z,3.80
2024-05-09T04:15:26.858Z,3.20
2024-05-09T04:17:32.306Z,3.47
2024-05-09T04:19:34.585Z,3.53
2024-05-09T04:21:39.487Z,3.50
2024-05-09T04:23:42.186Z,3.93
2024-05-09T04:25:47.507Z,3.97
2024-05-09T04:27:55.640Z,3.80
2024-05-09T04:30:00.961Z,4.00
2024-05-09T04:32:03.687Z,3.70
2024-05-09T04:34:08.713Z,3.60
2024-05-09T04:36:12.337Z,3.30
2024-05-09T04:38:17.050Z,3.70
2024-05-09T04:40:28.066Z,3.23
2024-05-09T04:42:38.252Z,3.50
2024-05-09T04:44:43.000Z,3.53
2024-05-09T04:46:47.727Z,3.40
2024-05-09T04:48:50.298Z,3.00
2024-05-09T04:50:55.434Z,3.47
2024-05-09T04:52:57.502Z,3.60
2024-05-09T04:55:02.568Z,3.00
2024-05-09T04:57:04.804Z,3.60
2024-05-09T04:59:09.530Z,3.10
2024-05-09T05:01:15.344Z,3.33
2024-05-09T05:03:20.372Z,3.67
2024-05-09T05:05:22.462Z,3.00
2024-05-09T05:07:27.498Z,3.20
2024-05-09T05:09:29.559Z,3.57
2024-05-09T05:11:34.325Z,3.23
2024-05-09T05:13:40.122Z,3.30
2024-05-09T05:15:46.435Z,3.80
2024-05-09T05:17:51.256Z,3.60
2024-05-09T05:19:56.819Z,3.40
2024-05-09T05:21:59.037Z,3.50
2024-05-09T05:24:03.665Z,3.60
2024-05-09T05:26:06.139Z,3.53
2024-05-09T05:28:11.081Z,3.80
2024-05-09T05:30:21.045Z,3.80
2024-05-09T05:32:31.064Z,3.87
2024-05-09T05:34:35.782Z,3.83
2024-05-09T05:36:40.713Z,3.50
2024-05-09T05:38:43.634Z,3.70
2024-05-09T05:40:50.698Z,3.50
2024-05-09T05:42:52.756Z,3.67
2024-05-09T05:44:57.772Z,3.37
2024-05-09T05:46:59.882Z,3.50
2024-05-09T05:49:04.582Z,3.47
2024-05-09T05:51:09.701Z,3.43
2024-05-09T05:53:14.592Z,3.27
2024-05-09T05:55:16.906Z,3.10
2024-05-09T05:57:22.399Z,3.30
2024-05-09T05:59:24.867Z,3.27
2024-05-09T06:01:29.500Z,3.00
2024-05-09T06:03:32.120Z,3.13
2024-05-09T06:05:35.717Z,3.50
2024-05-09T06:07:43.502Z,3.37
2024-05-09T06:09:48.211Z,3.47
2024-05-09T06:11:54.613Z,4.00
2024-05-09T06:13:56.757Z,3.30
2024-05-09T06:16:05.305Z,3.33
2024-05-09T06:18:08.413Z,3.67
2024-05-09T06:20:20.273Z,3.77
2024-05-09T06:22:29.286Z,3.60
2024-05-09T06:24:36.545Z,3.87
2024-05-09T06:26:41.919Z,3.70
2024-05-09T06:28:47.056Z,3.67
2024-05-09T06:30:49.144Z,4.10
2024-05-09T06:32:53.813Z,3.85
2024-05-09T06:34:56.559Z,4.00
2024-05-09T06:37:01.250Z,3.70
2024-05-09T06:39:03.449Z,3.72
2024-05-09T06:41:12.444Z,3.80
2024-05-09T06:43:17.556Z,3.63
2024-05-09T06:45:23.882Z,3.70
2024-05-09T06:47:26.376Z,4.18
2024-05-09T06:49:32.690Z,4.15
2024-05-09T06:51:36.432Z,3.55
2024-05-09T06:53:42.719Z,4.30
2024-05-09T06:55:44.933Z,4.40
2024-05-09T06:57:52.441Z,4.03
2024-05-09T06:59:59.568Z,3.70
2024-05-09T07:02:05.553Z,3.60
2024-05-09T07:04:07.831Z,3.67
2024-05-09T07:06:13.483Z,3.95
2024-05-09T07:08:15.772Z,3.88
2024-05-09T07:10:28.666Z,3.70
2024-05-09T07:12:35.323Z,3.80
2024-05-09T07:14:42.698Z,4.05
2024-05-09T07:16:44.719Z,3.88
2024-05-09T07:18:54.860Z,3.80
2024-05-09T07:20:57.298Z,4.40
2024-05-09T07:23:02.117Z,3.88
2024-05-09T07:25:05.352Z,4.00
2024-05-09T07:27:10.175Z,3.72
2024-05-09T07:29:12.445Z,4.18
2024-05-09T07:31:23.174Z,3.95
2024-05-09T07:33:25.665Z,3.92
2024-05-09T07:35:30.791Z,3.65
2024-05-09T07:37:33.710Z,4.00
2024-05-09T07:39:38.290Z,3.47
2024-05-09T07:41:41.835Z,3.88
2024-05-09T07:43:46.883Z,3.78
2024-05-09T07:45:53.558Z,3.67
2024-05-09T07:53:29.942Z,3.90
2024-05-09T07:54:38.787Z,3.90
2024-05-09T07:56:44.398Z,3.90
2024-05-09T07:58:46.575Z,4.13
2024-05-09T08:00:48.939Z,3.80
2024-05-09T08:02:54.154Z,4.07
2024-05-09T08:04:59.383Z,3.75
2024-05-09T08:07:04.208Z,3.90
2024-05-09T08:09:10.962Z,3.75
2024-05-09T08:11:19.655Z,3.60
2024-05-09T08:13:21.838Z,3.70
2024-05-09T08:15:27.036Z,3.67
2024-05-09T08:17:29.323Z,3.80
2024-05-09T08:19:34.940Z,3.35
2024-05-09T08:21:40.174Z,3.60
2024-05-09T08:23:44.881Z,3.30
2024-05-09T08:25:47.933Z,3.72
2024-05-09T08:27:53.136Z,3.45
2024-05-09T08:29:55.309Z,3.70
2024-05-09T08:32:00.326Z,3.67
2024-05-09T08:34:03.246Z,3.40
2024-05-09T08:36:08.738Z,3.40
2024-05-09T08:38:13.679Z,2.78
2024-05-09T08:40:27.289Z,3.28
2024-05-09T08:42:35.447Z,3.60
2024-05-09T08:44:40.667Z,3.47
2024-05-09T08:46:47.166Z,3.10
2024-05-09T08:48:54.532Z,3.08
2024-05-09T08:50:59.396Z,2.50
2024-05-09T08:53:04.911Z,2.45
2024-05-09T08:55:10.005Z,2.67
2024-05-09T08:57:15.972Z,2.53
2024-05-09T08:59:29.803Z,2.40
2024-05-09T09:01:37.978Z,2.90
2024-05-09T09:03:42.402Z,2.65
2024-05-09T09:05:56.009Z,2.88
2024-05-09T09:07:58.122Z,2.65
2024-05-09T09:10:07.044Z,2.78
2024-05-09T09:12:15.045Z,2.63
2024-05-09T09:14:19.649Z,2.30
2024-05-09T09:16:32.707Z,2.28
2024-05-09T09:18:38.010Z,2.17
2024-05-09T09:20:40.402Z,2.58
2024-05-09T09:22:45.969Z,2.38
2024-05-09T09:24:49.152Z,2.70
2024-05-09T09:26:53.842Z,2.80
2024-05-09T09:29:02.889Z,2.70
2024-05-09T09:31:08.161Z,2.63
2024-05-09T09:33:12.001Z,2.53
2024-05-09T09:35:17.178Z,2.65
2024-05-09T09:37:28.263Z,2.42
2024-05-09T09:39:35.596Z,2.70
2024-05-09T09:41:39.400Z,2.17
2024-05-09T09:43:46.803Z,2.97
2024-05-09T09:45:53.781Z,2.78
2024-05-09T09:47:59.958Z,2.60
2024-05-09T09:50:07.073Z,2.55
2024-05-09T09:52:15.518Z,2.40
2024-05-09T09:54:18.472Z,3.47
2024-05-09T09:56:24.598Z,2.97
2024-05-09T09:58:28.967Z,2.80
2024-05-09T10:00:34.901Z,2.93
2024-05-09T10:02:40.162Z,2.38
2024-05-09T10:04:45.016Z,2.40
2024-05-09T10:06:51.937Z,3.10
2024-05-09T10:08:57.281Z,2.30
2024-05-09T10:11:03.362Z,2.38
2024-05-09T10:13:09.087Z,2.35
2024-05-09T10:15:12.148Z,2.60
2024-05-09T10:17:16.912Z,2.53
2024-05-09T10:19:28.485Z,2.40
2024-05-09T10:21:34.012Z,2.35
2024-05-09T10:23:36.475Z,2.15
2024-05-09T10:25:38.616Z,2.10
2024-05-09T10:27:43.801Z,2.38
2024-05-09T10:29:52.602Z,2.15
2024-05-09T10:32:02.631Z,2.40
2024-05-09T10:34:05.689Z,2.05
2024-05-09T10:36:25.667Z,2.28
2024-05-09T10:38:27.860Z,2.33
2024-05-09T10:40:34.036Z,2.15
2024-05-09T10:42:39.666Z,2.20
2024-05-09T10:44:46.929Z,2.38
2024-05-09T10:46:50.261Z,2.40
2024-05-09T10:48:55.121Z,2.50
2024-05-09T10:50:57.557Z,2.13
2024-05-09T10:53:05.416Z,2.10
2024-05-09T10:55:07.648Z,2.20
2024-05-09T10:57:13.068Z,2.40
2024-05-09T10:59:15.573Z,2.40
2024-05-09T11:01:20.967Z,2.25
2024-05-09T11:03:23.924Z,2.15
2024-05-09T11:05:29.876Z,2.15
2024-05-09T11:07:33.239Z,2.00
2024-05-09T11:09:41.927Z,2.20
2024-05-09T11:11:44.848Z,2.05
2024-05-09T11:13:49.762Z,2.22
2024-05-09T11:15:52.019Z,2.03
2024-05-09T11:17:57.313Z,1.80
2024-05-09T11:20:00.295Z,2.00
2024-05-09T11:22:05.351Z,2.00
2024-05-09T11:24:11.019Z,1.75
2024-05-09T11:26:19.465Z,2.00
2024-05-09T11:28:22.831Z,1.95
2024-05-09T11:30:32.011Z,1.90
2024-05-09T11:32:37.974Z,1.70
2024-05-09T11:34:43.894Z,1.98
2024-05-09T11:36:46.472Z,2.00
2024-05-09T11:38:48.593Z,1.70
2024-05-09T11:40:53.596Z,1.70
2024-05-09T11:42:58.685Z,1.80
2024-05-09T11:45:04.042Z,1.60
2024-05-09T11:47:06.522Z,1.90
2024-05-09T11:49:12.317Z,1.80
2024-05-09T11:51:14.883Z,1.65
2024-05-09T11:53:19.796Z,1.73
2024-05-09T11:55:26.837Z,1.67
2024-05-09T11:57:32.865Z,1.90
2024-05-09T11:59:37.536Z,1.60
2024-05-09T12:01:43.106Z,1.70
2024-05-09T12:03:45.609Z,1.60
2024-05-09T12:05:50.425Z,1.73
2024-05-09T12:07:53.741Z,1.50
2024-05-09T12:09:58.664Z,1.55
2024-05-09T12:12:00.727Z,1.40
2024-05-09T12:14:06.540Z,1.60
2024-05-09T12:16:11.404Z,1.88
2024-05-09T12:18:16.366Z,1.90
2024-05-09T12:20:28.581Z,1.60
2024-05-09T12:22:40.203Z,1.60
2024-05-09T12:24:42.784Z,1.80
2024-05-09T12:26:48.091Z,1.35
2024-05-09T12:28:50.109Z,1.70
2024-05-09T12:30:54.834Z,1.75
2024-05-09T12:33:00.058Z,1.85
2024-05-09T12:35:04.796Z,1.77
2024-05-09T12:37:06.900Z,1.73
2024-05-09T12:39:12.548Z,1.73
2024-05-09T12:41:14.686Z,1.60
2024-05-09T12:43:20.407Z,1.70
2024-05-09T12:45:23.534Z,1.67
2024-05-09T12:47:28.529Z,1.60
2024-05-09T12:49:33.527Z,1.88
2024-05-09T12:51:38.908Z,1.60
2024-05-09T12:53:41.008Z,1.70
2024-05-09T12:55:53.560Z,1.60
2024-05-09T12:57:59.788Z,1.50
2024-05-09T13:00:05.753Z,1.50
2024-05-09T13:02:11.049Z,1.40
2024-05-09T13:04:16.496Z,1.60
2024-05-09T13:06:21.421Z,1.60
2024-05-09T13:08:26.433Z,1.40
2024-05-09T13:10:32.451Z,1.70
2024-05-09T13:12:38.409Z,1.60
2024-05-09T13:14:40.475Z,1.60
2024-05-09T13:16:45.909Z,1.50
2024-05-09T13:18:48.047Z,3.03
2024-05-09T13:20:52.938Z,1.58
2024-05-09T13:22:58.154Z,1.85
2024-05-09T13:25:02.897Z,1.52
2024-05-09T13:27:05.233Z,1.95
2024-05-09T13:29:10.487Z,1.80
2024-05-09T13:31:12.632Z,1.77
2024-05-09T13:33:17.378Z,1.52
2024-05-09T13:35:19.850Z,1.50
2024-05-09T13:37:24.574Z,1.95
2024-05-09T13:39:29.374Z,1.40
2024-05-09T13:41:34.680Z,1.95
2024-05-09T13:43:37.415Z,1.40
2024-05-09T13:45:44.425Z,1.55
2024-05-09T13:47:47.097Z,1.67
2024-05-09T13:49:52.237Z,2.40
2024-05-09T13:51:54.307Z,5.03
2024-05-09T13:53:59.393Z,1.65
2024-05-09T13:56:04.587Z,1.30
2024-05-09T13:58:09.927Z,1.30
2024-05-09T14:00:27.007Z,1.55
2024-05-09T14:02:37.941Z,1.23
2024-05-09T14:04:40.303Z,1.50
2024-05-09T14:06:45.801Z,1.45
2024-05-09T14:08:48.876Z,1.30
2024-05-09T14:10:54.201Z,1.20
2024-05-09T14:12:59.867Z,1.30
2024-05-09T14:15:04.642Z,2.05
2024-05-09T14:17:07.135Z,1.75
2024-05-09T14:19:12.364Z,2.80
2024-05-09T14:21:14.580Z,1.75
2024-05-09T14:23:20.763Z,13.48
2024-05-09T14:25:26.066Z,5.45
2024-05-09T14:27:32.199Z,1.90
2024-05-09T14:29:37.045Z,1.77
2024-05-09T14:31:42.065Z,4.65
2024-05-09T14:33:44.340Z,10.13
2024-05-09T14:35:49.510Z,3.47
2024-05-09T14:37:52.169Z,1.88
2024-05-09T14:39:57.517Z,1.70
2024-05-09T14:41:59.611Z,1.40
2024-05-09T14:44:04.600Z,1.40
2024-05-09T14:46:10.057Z,1.17
2024-05-09T14:48:19.787Z,1.50
2024-05-09T14:50:28.108Z,2.17
2024-05-09T14:52:39.870Z,1.50
2024-05-09T14:54:41.992Z,1.60
2024-05-09T14:56:47.148Z,2.38
2024-05-09T14:58:49.211Z,1.50
2024-05-09T15:00:53.909Z,1.58
2024-05-09T15:02:58.991Z,3.92
2024-05-09T15:05:04.989Z,1.80
2024-05-09T15:07:08.352Z,1.45
2024-05-09T15:09:15.374Z,1.50
2024-05-09T15:11:17.424Z,1.73
2024-05-09T15:13:23.054Z,1.63
2024-05-09T15:15:25.449Z,1.23
2024-05-09T15:17:30.728Z,1.75
2024-05-09T15:19:38.036Z,1.50
2024-05-09T15:21:43.400Z,1.27
2024-05-09T15:23:45.553Z,1.70
2024-05-09T15:25:50.270Z,2.80
2024-05-09T15:27:52.801Z,1.15
2024-05-09T15:29:57.392Z,1.50
2024-05-09T15:31:59.537Z,1.52
2024-05-09T15:34:05.029Z,1.60
2024-05-09T15:36:10.294Z,1.40
2024-05-09T15:38:16.331Z,1.63
2024-05-09T15:40:26.616Z,1.60
2024-05-09T15:42:42.675Z,1.15
2024-05-09T15:44:45.559Z,1.02
2024-05-09T15:46:51.975Z,1.75
2024-05-09T15:48:54.224Z,1.25
2024-05-09T15:50:58.971Z,1.42
2024-05-09T15:53:04.253Z,1.60
2024-05-09T15:55:10.469Z,1.35
2024-05-09T15:57:12.692Z,1.42
2024-05-09T15:59:17.796Z,1.42
2024-05-09T16:01:20.933Z,1.50
2024-05-09T16:03:26.932Z,1.67
2024-05-09T16:05:29.567Z,1.40
2024-05-09T16:07:34.978Z,1.23
2024-05-09T16:09:40.010Z,1.30
2024-05-09T16:11:45.161Z,1.55
2024-05-09T16:13:47.420Z,1.20
2024-05-09T16:15:52.169Z,1.38
2024-05-09T16:17:55.038Z,1.40
2024-05-09T16:19:59.731Z,1.50
2024-05-09T16:22:02.403Z,1.35
2024-05-09T16:24:08.053Z,1.20
2024-05-09T16:26:12.712Z,1.48
2024-05-09T16:28:17.441Z,1.50
2024-05-09T16:30:27.854Z,1.23
2024-05-09T16:32:40.795Z,1.30
2024-05-09T16:34:43.403Z,1.52
2024-05-09T16:36:51.067Z,1.88
2024-05-09T16:38:53.712Z,1.48
2024-05-09T16:40:58.479Z,1.40
2024-05-09T16:43:04.653Z,1.40
2024-05-09T16:45:11.332Z,1.45
2024-05-09T16:47:14.706Z,1.20
2024-05-09T16:49:19.878Z,1.52
2024-05-09T16:51:22.294Z,1.30
2024-05-09T16:53:27.736Z,1.40
2024-05-09T16:55:30.240Z,1.30
2024-05-09T16:57:35.042Z,1.48
2024-05-09T16:59:39.745Z,1.38
2024-05-09T17:01:44.998Z,1.30
2024-05-09T17:03:47.232Z,1.17
2024-05-09T17:05:52.078Z,1.20
2024-05-09T17:07:54.885Z,3.33
2024-05-09T17:09:59.495Z,1.83
2024-05-09T17:12:01.495Z,1.77
2024-05-09T17:14:07.210Z,1.30
2024-05-09T17:16:15.598Z,1.17
2024-05-09T17:18:17.835Z,1.38
2024-05-09T17:20:29.863Z,1.30
2024-05-09T17:22:36.316Z,1.35
2024-05-09T17:24:41.040Z,1.35
2024-05-09T17:26:43.586Z,1.45
2024-05-09T17:28:48.312Z,1.33
2024-05-09T17:30:50.450Z,1.30
2024-05-09T17:32:58.339Z,1.58
2024-05-09T17:35:00.657Z,1.50
2024-05-09T17:37:05.766Z,1.30
2024-05-09T17:39:08.274Z,1.60
2024-05-09T17:41:12.808Z,1.60
2024-05-09T17:43:14.889Z,1.45
2024-05-09T17:45:20.501Z,1.38
2024-05-09T17:47:23.210Z,1.30
2024-05-09T17:49:32.630Z,1.00
2024-05-09T17:51:35.852Z,1.30
2024-05-09T17:53:41.707Z,1.67
2024-05-09T17:55:46.490Z,1.40
2024-05-09T17:57:51.687Z,1.42
2024-05-09T17:59:53.995Z,1.40
2024-05-09T18:01:58.949Z,1.40
2024-05-09T18:04:01.635Z,1.38
2024-05-09T18:06:09.235Z,1.50
2024-05-09T18:08:11.242Z,1.52
2024-05-09T18:10:22.572Z,1.70
2024-05-09T18:12:31.744Z,1.55
2024-05-09T18:14:36.438Z,1.70
2024-05-09T18:16:39.503Z,1.77
2024-05-09T18:18:44.540Z,1.70
2024-05-09T18:20:46.826Z,1.70
2024-05-09T18:22:54.435Z,1.60
2024-05-09T18:24:56.484Z,1.60
2024-05-09T18:27:01.767Z,1.90
2024-05-09T18:29:04.931Z,2.22
2024-05-09T18:31:09.763Z,2.03
2024-05-09T18:33:12.856Z,2.33
2024-05-09T18:35:18.609Z,2.17
2024-05-09T18:37:21.018Z,2.90
2024-05-09T18:39:28.290Z,3.05
2024-05-09T18:41:30.792Z,2.33
2024-05-09T18:43:42.187Z,2.17
2024-05-09T18:45:47.692Z,1.90
2024-05-09T18:47:54.262Z,1.90
2024-05-09T18:49:56.767Z,1.95
2024-05-09T18:52:01.375Z,1.90
2024-05-09T18:54:03.963Z,2.30
2024-05-09T18:56:11.834Z,1.90
2024-05-09T18:58:13.976Z,2.38
2024-05-09T19:00:31.044Z,1.90
2024-05-09T19:02:37.772Z,2.00
2024-05-09T19:04:42.610Z,2.80
2024-05-09T19:06:45.327Z,4.07
2024-05-09T19:08:50.039Z,3.80
2024-05-09T19:10:52.637Z,2.75
2024-05-09T19:13:00.475Z,2.45
2024-05-09T19:15:02.609Z,2.10
2024-05-09T19:17:07.309Z,2.50
2024-05-09T19:19:09.979Z,2.15
2024-05-09T19:21:14.725Z,2.42
2024-05-09T19:23:16.745Z,2.50
2024-05-09T19:25:21.857Z,2.22
2024-05-09T19:27:24.253Z,2.90
2024-05-09T19:29:31.440Z,3.17
2024-05-09T19:31:33.986Z,2.97
2024-05-09T19:33:39.515Z,3.05
2024-05-09T19:35:41.967Z,3.00
2024-05-09T19:37:48.819Z,3.10
2024-05-09T19:39:50.906Z,3.22
2024-05-09T19:41:55.556Z,2.83
2024-05-09T19:43:57.971Z,2.78
2024-05-09T19:46:05.599Z,2.85
2024-05-09T19:48:08.340Z,2.83
2024-05-09T19:50:19.934Z,2.80
2024-05-09T19:52:28.788Z,2.78
2024-05-09T19:54:33.465Z,2.80
2024-05-09T19:56:35.984Z,4.10
2024-05-09T19:58:41.246Z,3.45
2024-05-09T20:00:44.473Z,3.38
2024-05-09T20:02:52.926Z,3.00
2024-05-09T20:04:55.337Z,2.95
2024-05-09T20:07:00.101Z,2.80
2024-05-09T20:09:02.610Z,2.78
2024-05-09T20:11:07.519Z,3.05
2024-05-09T20:13:09.610Z,2.33
2024-05-09T20:15:15.066Z,2.72
2024-05-09T20:17:17.073Z,2.28
2024-05-09T20:19:24.360Z,2.33
2024-05-09T20:21:26.810Z,2.65
2024-05-09T20:23:31.957Z,2.55
2024-05-09T20:25:34.034Z,2.50
2024-05-09T20:27:39.050Z,2.28
2024-05-09T20:29:41.066Z,2.40
2024-05-09T20:31:45.708Z,2.50
2024-05-09T20:33:48.316Z,3.10
2024-05-09T20:36:00.517Z,2.42
2024-05-09T20:38:04.435Z,2.50
2024-05-09T20:40:18.163Z,2.47
2024-05-09T20:42:26.919Z,2.78
2024-05-09T20:44:31.825Z,2.75
2024-05-09T20:46:34.339Z,2.50
2024-05-09T20:48:39.425Z,2.50
2024-05-09T20:50:42.856Z,2.58
2024-05-09T20:52:51.016Z,2.60
2024-05-09T20:54:53.096Z,2.15
2024-05-09T20:56:57.918Z,2.30
2024-05-09T20:59:00.279Z,2.15
2024-05-09T21:01:04.977Z,2.35
2024-05-09T21:03:07.775Z,2.40
2024-05-09T21:05:13.201Z,2.00
2024-05-09T21:07:15.450Z,2.40
2024-05-09T21:09:25.570Z,2.28
2024-05-09T21:11:28.900Z,2.40
2024-05-09T21:13:33.616Z,2.50
2024-05-09T21:15:36.387Z,3.03
2024-05-09T21:17:41.655Z,2.38
2024-05-09T21:19:43.938Z,2.25
2024-05-09T21:21:49.975Z,2.10
2024-05-09T21:23:52.951Z,2.40
2024-05-09T21:26:00.603Z,2.40
2024-05-09T21:28:03.254Z,2.50
2024-05-09T21:30:10.315Z,2.40
2024-05-09T21:32:21.036Z,2.42
2024-05-09T21:34:23.202Z,2.67
2024-05-09T21:36:28.549Z,2.50
2024-05-09T21:38:30.672Z,2.33
2024-05-09T21:40:36.688Z,2.65
2024-05-09T21:42:42.630Z,2.67
2024-05-09T21:44:47.261Z,2.67
2024-05-09T21:46:49.265Z,2.53
2024-05-09T21:48:54.777Z,2.75
2024-05-09T21:50:57.460Z,2.50
2024-05-09T21:53:02.072Z,2.50
2024-05-09T21:55:05.048Z,2.42
2024-05-09T21:57:09.999Z,2.60
2024-05-09T21:59:14.649Z,2.60
2024-05-09T22:01:19.800Z,2.92
2024-05-09T22:03:21.961Z,2.60
2024-05-09T22:05:26.935Z,2.70
2024-05-09T22:07:29.393Z,3.67
2024-05-09T22:09:34.300Z,4.97
2024-05-09T22:11:36.572Z,3.85
2024-05-09T22:13:42.108Z,3.40
2024-05-09T22:15:46.810Z,2.80
2024-05-09T22:17:51.797Z,2.70
2024-05-09T22:19:54.287Z,2.90
2024-05-09T22:22:00.030Z,2.25
2024-05-09T22:24:02.074Z,2.50
2024-05-09T22:26:07.570Z,2.50
2024-05-09T22:28:09.742Z,2.67
2024-05-09T22:30:17.526Z,2.50
2024-05-09T22:32:28.660Z,2.47
2024-05-09T22:34:30.849Z,2.60
2024-05-09T22:36:35.543Z,2.80
2024-05-09T22:38:37.939Z,2.50
2024-05-09T22:40:47.995Z,2.50
2024-05-09T22:42:51.837Z,2.50
2024-05-09T22:44:57.249Z,2.20
2024-05-09T22:46:59.627Z,2.50
2024-05-09T22:49:07.004Z,2.38
2024-05-09T22:51:12.718Z,3.03
2024-05-09T22:53:17.772Z,2.88
2024-05-09T22:55:19.810Z,2.63
2024-05-09T22:57:24.753Z,2.80
2024-05-09T22:59:29.356Z,2.53
2024-05-09T23:01:34.068Z,2.80
2024-05-09T23:03:39.269Z,2.60
2024-05-09T23:05:47.299Z,2.60
2024-05-09T23:07:49.328Z,2.50
2024-05-09T23:09:51.729Z,2.40
2024-05-09T23:11:56.434Z,2.65
2024-05-09T23:13:58.474Z,3.00
2024-05-09T23:16:01.281Z,2.90
2024-05-09T23:18:06.281Z,2.67
2024-05-09T23:20:11.616Z,2.90
2024-05-09T23:22:19.837Z,2.80
2024-05-09T23:24:21.970Z,2.97
2024-05-09T23:26:26.566Z,2.43
2024-05-09T23:28:29.133Z,2.70
2024-05-09T23:30:38.417Z,2.80
2024-05-09T23:32:42.661Z,2.70
2024-05-09T23:34:48.416Z,2.67
2024-05-09T23:36:50.440Z,2.50
2024-05-09T23:38:57.875Z,3.03
2024-05-09T23:41:00.694Z,3.10
2024-05-09T23:43:05.848Z,2.80
2024-05-09T23:45:08.499Z,3.03
2024-05-09T23:47:13.884Z,2.80
2024-05-09T23:49:15.954Z,3.37
2024-05-09T23:51:20.754Z,3.20
2024-05-09T23:53:23.235Z,2.93
2024-05-09T23:55:31.817Z,2.60
2024-05-09T23:57:34.171Z,2.70
2024-05-09T23:59:39.132Z,3.30
